Time,TemperatureF,DewpointF,PressureIn,WindDirection,WindDirectionDegrees,WindSpeedMPH,WindSpeedGustMPH,Humidity,HourlyPrecipIn,Conditions,Clouds,dailyrainin,SoftwareType,DateUTC
2013-02-22 00:11:00,21.7,19.5,30.13,West,270,0.0,-999.0,91,-99.99,,,0.00,Acu-Link.com,2013-02-22 05:11:00,
2013-02-22 00:26:00,21.9,19.9,30.11,NE,45,0.0,-999.0,92,-99.99,,,0.00,Acu-Link.com,2013-02-22 05:26:00,
2013-02-22 00:42:00,21.7,20.0,30.10,SSW,202,0.0,-999.0,93,-99.99,,,0.00,Acu-Link.com,2013-02-22 05:42:00,
2013-02-22 00:57:00,21.7,20.0,30.12,NE,45,6.3,-999.0,93,-99.99,,,0.00,Acu-Link.com,2013-02-22 05:57:00,
2013-02-22 01:27:00,21.7,21.2,30.10,ENE,67,9.9,-999.0,98,-99.99,,,0.00,Acu-Link.com,2013-02-22 06:27:00,
2013-02-22 01:42:00,21.6,21.1,30.10,NNE,22,0.0,-999.0,98,-99.99,,,0.00,Acu-Link.com,2013-02-22 06:42:00,
2013-02-22 01:58:00,21.6,21.1,30.09,ENE,67,14.0,-999.0,98,-99.99,,,0.00,Acu-Link.com,2013-02-22 06:58:00,
2013-02-22 02:13:00,21.4,20.9,30.11,NE,45,1.1,-999.0,98,-99.99,,,0.00,Acu-Link.com,2013-02-22 07:13:00,
2013-02-22 02:28:00,21.2,20.7,30.10,NNW,337,0.0,-999.0,98,-99.99,,,0.00,Acu-Link.com,2013-02-22 07:28:00,
2013-02-22 02:43:00,21.4,20.9,30.09,NW,315,0.0,-999.0,98,-99.99,,,0.00,Acu-Link.com,2013-02-22 07:43:00,
2013-02-22 02:59:00,21.6,21.1,30.09,East,90,0.0,-999.0,98,-99.99,,,0.00,Acu-Link.com,2013-02-22 07:59:00,
2013-02-22 03:14:00,21.2,20.7,30.08,NNE,22,0.0,-999.0,98,-99.99,,,0.00,Acu-Link.com,2013-02-22 08:14:00,
2013-02-22 03:29:00,21.0,20.5,30.10,WNW,292,0.0,-999.0,98,-99.99,,,0.00,Acu-Link.com,2013-02-22 08:29:00,
2013-02-22 03:45:00,20.8,20.3,30.13,West,270,0.0,-999.0,98,-99.99,,,0.00,Acu-Link.com,2013-02-22 08:45:00,
2013-02-22 04:00:00,21.0,20.5,30.15,East,90,0.0,-999.0,98,-99.99,,,0.00,Acu-Link.com,2013-02-22 09:00:00,
2013-02-22 04:20:00,21.0,20.5,30.13,NNE,22,0.0,-999.0,98,-99.99,,,0.00,Acu-Link.com,2013-02-22 09:20:00,
2013-02-22 04:35:00,21.6,21.1,30.14,WNW,292,0.0,-999.0,98,-99.99,,,0.00,Acu-Link.com,2013-02-22 09:35:00,
2013-02-22 04:50:00,21.6,21.1,30.14,NE,45,0.0,-999.0,98,-99.99,,,0.00,Acu-Link.com,2013-02-22 09:50:00,
2013-02-22 05:05:00,21.6,21.1,30.16,WNW,292,0.0,-999.0,98,-99.99,,,0.00,Acu-Link.com,2013-02-22 10:05:00,
2013-02-22 05:20:00,21.4,20.9,30.15,ENE,67,0.0,-999.0,98,-99.99,,,0.00,Acu-Link.com,2013-02-22 10:20:00,
2013-02-22 05:35:00,21.2,20.7,30.16,NE,45,0.0,-999.0,98,-99.99,,,0.00,Acu-Link.com,2013-02-22 10:35:00,
2013-02-22 05:50:00,21.0,20.5,30.16,North,0,0.0,-999.0,98,-99.99,,,0.00,Acu-Link.com,2013-02-22 10:50:00,
2013-02-22 06:06:00,20.8,20.3,30.18,ENE,67,0.0,-999.0,98,-99.99,,,0.00,Acu-Link.com,2013-02-22 11:06:00,
2013-02-22 06:21:00,20.8,20.3,30.19,ENE,67,0.0,-999.0,98,-99.99,,,0.00,Acu-Link.com,2013-02-22 11:21:00,
2013-02-22 06:36:00,20.7,20.2,30.20,NE,45,0.0,-999.0,98,-99.99,,,0.00,Acu-Link.com,2013-02-22 11:36:00,
2013-02-22 06:51:00,20.7,20.2,30.19,NE,45,0.0,-999.0,98,-99.99,,,0.00,Acu-Link.com,2013-02-22 11:51:00,
2013-02-22 07:06:00,21.2,20.7,30.20,West,270,0.0,-999.0,98,-99.99,,,0.00,Acu-Link.com,2013-02-22 12:06:00,
2013-02-22 07:22:00,21.6,21.1,30.22,ENE,67,0.0,-999.0,98,-99.99,,,0.00,Acu-Link.com,2013-02-22 12:22:00,
2013-02-22 07:37:00,21.9,21.4,30.24,WSW,247,0.0,-999.0,98,-99.99,,,0.00,Acu-Link.com,2013-02-22 12:37:00,
2013-02-22 07:52:00,23.0,22.5,30.23,West,270,0.0,-999.0,98,-99.99,,,0.00,Acu-Link.com,2013-02-22 12:52:00,
2013-02-22 08:07:00,23.9,23.4,30.25,SSE,157,0.0,-999.0,98,-99.99,,,0.00,Acu-Link.com,2013-02-22 13:07:00,
2013-02-22 08:22:00,24.6,24.1,30.22,NE,45,0.0,-999.0,98,-99.99,,,0.00,Acu-Link.com,2013-02-22 13:22:00,
2013-02-22 08:38:00,25.0,24.3,30.23,West,270,0.0,-999.0,97,-99.99,,,0.00,Acu-Link.com,2013-02-22 13:38:00,
2013-02-22 08:53:00,26.6,24.3,30.23,NE,45,0.0,-999.0,91,-99.99,,,0.00,Acu-Link.com,2013-02-22 13:53:00,
2013-02-22 09:08:00,27.0,24.2,30.21,NE,45,2.7,-999.0,89,-99.99,,,0.00,Acu-Link.com,2013-02-22 14:08:00,
2013-02-22 09:23:00,28.4,24.8,30.22,NNW,337,0.0,-999.0,86,-99.99,,,0.00,Acu-Link.com,2013-02-22 14:23:00,
2013-02-22 09:39:00,28.9,25.0,30.22,ENE,67,0.0,-999.0,85,-99.99,,,0.00,Acu-Link.com,2013-02-22 14:39:00,
2013-02-22 09:54:00,29.3,25.1,30.23,NNE,22,0.0,-999.0,84,-99.99,,,0.00,Acu-Link.com,2013-02-22 14:54:00,
2013-02-22 10:09:00,31.8,26.3,30.19,East,90,0.0,-999.0,80,-99.99,,,0.00,Acu-Link.com,2013-02-22 15:09:00,
2013-02-22 10:24:00,31.3,26.2,30.19,ENE,67,0.0,-999.0,81,-99.99,,,0.00,Acu-Link.com,2013-02-22 15:24:00,
2013-02-22 10:40:00,32.2,26.1,30.20,East,90,0.0,-999.0,78,-99.99,,,0.00,Acu-Link.com,2013-02-22 15:40:00,
2013-02-22 10:55:00,34.5,27.1,30.19,SE,135,0.0,-999.0,74,-99.99,,,0.00,Acu-Link.com,2013-02-22 15:55:00,
2013-02-22 11:10:00,34.9,27.1,30.21,ESE,112,0.0,-999.0,73,-99.99,,,0.00,Acu-Link.com,2013-02-22 16:10:00,
2013-02-22 11:25:00,35.8,27.3,30.21,SSE,157,0.0,-999.0,71,-99.99,,,0.00,Acu-Link.com,2013-02-22 16:25:00,
2013-02-22 11:41:00,38.1,28.8,30.21,ESE,112,0.0,-999.0,69,-99.99,,,0.00,Acu-Link.com,2013-02-22 16:41:00,
2013-02-22 11:56:00,37.4,27.8,30.22,West,270,0.0,-999.0,68,-99.99,,,0.00,Acu-Link.com,2013-02-22 16:56:00,
2013-02-22 12:11:00,38.3,28.0,30.21,SSW,202,1.1,-999.0,66,-99.99,,,0.00,Acu-Link.com,2013-02-22 17:11:00,
2013-02-22 12:27:00,39.2,28.4,30.18,SSE,157,0.0,-999.0,65,-99.99,,,0.00,Acu-Link.com,2013-02-22 17:27:00,
2013-02-22 12:42:00,39.9,28.3,30.16,ENE,67,0.0,-999.0,63,-99.99,,,0.00,Acu-Link.com,2013-02-22 17:42:00,
2013-02-22 12:57:00,39.2,29.2,30.17,SE,135,0.0,-999.0,67,-99.99,,,0.00,Acu-Link.com,2013-02-22 17:57:00,
2013-02-22 13:12:00,39.6,28.8,30.18,SSE,157,0.0,-999.0,65,-99.99,,,0.00,Acu-Link.com,2013-02-22 18:12:00,
2013-02-22 13:28:00,39.2,29.2,30.15,ESE,112,0.0,-999.0,67,-99.99,,,0.00,Acu-Link.com,2013-02-22 18:28:00,
2013-02-22 13:43:00,39.0,29.0,30.15,SW,225,0.0,-999.0,67,-99.99,,,0.00,Acu-Link.com,2013-02-22 18:43:00,
2013-02-22 13:58:00,40.5,29.7,30.14,East,90,0.0,-999.0,65,-99.99,,,0.00,Acu-Link.com,2013-02-22 18:58:00,
2013-02-22 14:14:00,40.5,28.5,30.16,SSE,157,0.0,-999.0,62,-99.99,,,0.00,Acu-Link.com,2013-02-22 19:14:00,
2013-02-22 14:29:00,40.5,28.5,30.16,ESE,112,0.0,-999.0,62,-99.99,,,0.00,Acu-Link.com,2013-02-22 19:29:00,
2013-02-22 14:44:00,39.9,29.1,30.14,SSW,202,0.0,-999.0,65,-99.99,,,0.00,Acu-Link.com,2013-02-22 19:44:00,
2013-02-22 15:00:00,39.9,29.8,30.16,SSW,202,0.0,-999.0,67,-99.99,,,0.00,Acu-Link.com,2013-02-22 20:00:00,
2013-02-22 15:15:00,39.7,29.7,30.14,SSW,202,0.0,-999.0,67,-99.99,,,0.00,Acu-Link.com,2013-02-22 20:15:00,
2013-02-22 15:30:00,39.6,29.9,30.14,South,180,0.0,-999.0,68,-99.99,,,0.00,Acu-Link.com,2013-02-22 20:30:00,
2013-02-22 15:45:00,38.7,29.8,30.14,SSE,157,0.0,-999.0,70,-99.99,,,0.00,Acu-Link.com,2013-02-22 20:45:00,
2013-02-22 16:01:00,38.8,30.6,30.15,East,90,0.0,-999.0,72,-99.99,,,0.00,Acu-Link.com,2013-02-22 21:01:00,
2013-02-22 16:16:00,37.0,30.5,30.15,SSE,157,0.0,-999.0,77,-99.99,,,0.00,Acu-Link.com,2013-02-22 21:16:00,
2013-02-22 16:31:00,36.9,30.7,30.15,East,90,0.0,-999.0,78,-99.99,,,0.00,Acu-Link.com,2013-02-22 21:31:00,
2013-02-22 16:46:00,36.1,31.1,30.14,SE,135,0.0,-999.0,82,-99.99,,,0.00,Acu-Link.com,2013-02-22 21:46:00,
2013-02-22 17:02:00,36.0,31.9,30.16,SE,135,0.0,-999.0,85,-99.99,,,0.00,Acu-Link.com,2013-02-22 22:02:00,
2013-02-22 17:17:00,35.8,32.0,30.15,South,180,0.0,-999.0,86,-99.99,,,0.00,Acu-Link.com,2013-02-22 22:17:00,
2013-02-22 17:32:00,34.9,32.0,30.16,SSE,157,0.0,-999.0,89,-99.99,,,0.00,Acu-Link.com,2013-02-22 22:32:00,
2013-02-22 17:48:00,35.2,32.3,30.16,SSE,157,0.0,-999.0,89,-99.99,,,0.00,Acu-Link.com,2013-02-22 22:48:00,
2013-02-22 18:03:00,35.1,33.0,30.17,SE,135,0.0,-999.0,92,-99.99,,,0.00,Acu-Link.com,2013-02-22 23:03:00,
2013-02-22 18:18:00,36.1,33.7,30.17,South,180,0.0,-999.0,91,-99.99,,,0.00,Acu-Link.com,2013-02-22 23:18:00,
2013-02-22 18:33:00,34.3,32.8,30.17,SE,135,0.0,-999.0,94,-99.99,,,0.00,Acu-Link.com,2013-02-22 23:33:00,
2013-02-22 18:49:00,34.2,33.7,30.17,ESE,112,0.0,-999.0,98,-99.99,,,0.00,Acu-Link.com,2013-02-22 23:49:00,
2013-02-22 19:04:00,34.2,33.7,30.15,South,180,0.0,-999.0,98,-99.99,,,0.00,Acu-Link.com,2013-02-23 00:04:00,
2013-02-22 19:19:00,34.2,33.7,30.17,East,90,0.0,-999.0,98,-99.99,,,0.00,Acu-Link.com,2013-02-23 00:19:00,
2013-02-22 19:34:00,34.2,33.7,30.15,SSE,157,0.0,-999.0,98,-99.99,,,0.00,Acu-Link.com,2013-02-23 00:34:00,
2013-02-22 19:50:00,34.9,34.4,30.16,ESE,112,0.0,-999.0,98,-99.99,,,0.00,Acu-Link.com,2013-02-23 00:50:00,
2013-02-22 20:05:00,34.3,33.8,30.15,South,180,0.0,-999.0,98,-99.99,,,0.00,Acu-Link.com,2013-02-23 01:05:00,
2013-02-22 20:20:00,34.3,33.8,30.16,SSE,157,0.0,-999.0,98,-99.99,,,0.00,Acu-Link.com,2013-02-23 01:20:00,
2013-02-22 20:36:00,34.3,33.8,30.16,SE,135,0.0,-999.0,98,-99.99,,,0.00,Acu-Link.com,2013-02-23 01:36:00,
2013-02-22 20:51:00,34.2,33.7,30.18,East,90,0.0,-999.0,98,-99.99,,,0.00,Acu-Link.com,2013-02-23 01:51:00,
2013-02-22 21:06:00,34.0,33.5,30.17,ESE,112,0.0,-999.0,98,-99.99,,,0.00,Acu-Link.com,2013-02-23 02:06:00,
2013-02-22 21:22:00,34.0,33.5,30.17,ESE,112,0.0,-999.0,98,-99.99,,,0.00,Acu-Link.com,2013-02-23 02:22:00,
2013-02-22 21:37:00,33.8,33.3,30.16,SW,225,0.0,-999.0,98,-99.99,,,0.00,Acu-Link.com,2013-02-23 02:37:00,
2013-02-22 21:52:00,33.8,33.3,30.17,ESE,112,0.0,-999.0,98,-99.99,,,0.00,Acu-Link.com,2013-02-23 02:52:00,
2013-02-22 22:07:00,33.8,33.3,30.16,ESE,112,0.0,-999.0,98,-99.99,,,0.00,Acu-Link.com,2013-02-23 03:07:00,
2013-02-22 22:23:00,33.8,33.3,30.15,SE,135,0.0,-999.0,98,-99.99,,,0.00,Acu-Link.com,2013-02-23 03:23:00,
2013-02-22 22:38:00,33.4,32.9,30.16,WNW,292,0.0,-999.0,98,-99.99,,,0.00,Acu-Link.com,2013-02-23 03:38:00,
2013-02-22 22:53:00,33.8,33.3,30.16,ESE,112,0.0,-999.0,98,-99.99,,,0.00,Acu-Link.com,2013-02-23 03:53:00,
2013-02-22 23:09:00,33.4,32.9,30.14,ESE,112,0.0,-999.0,98,-99.99,,,0.00,Acu-Link.com,2013-02-23 04:09:00,
2013-02-22 23:24:00,33.8,33.3,30.13,ESE,112,0.0,-999.0,98,-99.99,,,0.00,Acu-Link.com,2013-02-23 04:24:00,
2013-02-22 23:39:00,33.8,33.3,30.13,ESE,112,0.0,-999.0,98,-99.99,,,0.00,Acu-Link.com,2013-02-23 04:39:00,
2013-02-22 23:55:00,34.0,33.5,30.14,ESE,112,0.0,-999.0,98,-99.99,,,0.00,Acu-Link.com,2013-02-23 04:55:00,